Погода Киреевна 2 недели

Ростовская область, Россия

19 мая-01 июня
  • 19мая
    Сегодня
    +8°
    +21°
    Небольшая облачность
    ВремяПогодаТемператураВлажностьДавлениеВетер, м/сВероятность осадков
    00:00Практически безоблачно+10°C69 %755 мм1.5 м/с1 %
    03:00Ясно и безоблачно+9°C76 %754 мм1.0 м/с2 %
    06:00Ясно и безоблачно+10°C78 %755 мм1.8 м/с2 %
    09:00Практически безоблачно+18°C51 %755 мм0.8 м/с2 %
    12:00Практически безоблачно+20°C42 %755 мм1.3 м/с5 %
    15:00Небольшая облачность+21°C38 %754 мм0.9 м/с18 %
    18:00Небольшая облачность+19°C48 %755 мм0.9 м/с31 %
    21:00Ясно и безоблачно+14°C73 %755 мм1.7 м/с2 %
  • 20мая
    Понедельник
    +8°
    +22°
    Небольшая облачность
    ВремяПогодаТемператураВлажностьДавлениеВетер, м/сВероятность осадков
    00:00Ясно и безоблачно+10°C83 %755 мм1.0 м/с2 %
    03:00Ясно и безоблачно+9°C89 %755 мм1.4 м/с2 %
    06:00Ясно и безоблачно+11°C78 %756 мм2.5 м/с2 %
    09:00Практически безоблачно+19°C48 %757 мм1.8 м/с2 %
    12:00Облачно с прояснениями+22°C36 %757 мм2.0 м/с5 %
    15:00Небольшая облачность+22°C34 %757 мм1.7 м/с3 %
    18:00Практически безоблачно+22°C32 %756 мм2.2 м/с2 %
    21:00Ясно и безоблачно+16°C46 %757 мм2.1 м/с2 %
  • 21мая
    Вторник
    +9°
    +25°
    Практически безоблачно
    ВремяПогодаТемператураВлажностьДавлениеВетер, м/сВероятность осадков
    00:00Практически безоблачно+11°C51 %757 мм2.5 м/с2 %
    03:00Практически безоблачно+8°C67 %758 мм2.3 м/с2 %
    06:00Практически безоблачно+12°C61 %758 мм1.8 м/с2 %
    09:00Ясно и безоблачно+21°C38 %759 мм1.5 м/с2 %
    12:00Небольшая облачность+24°C27 %759 мм1.5 м/с2 %
    15:00Практически безоблачно+24°C26 %759 мм0.5 м/с2 %
    18:00Ясно и безоблачно+23°C27 %758 мм1.9 м/с2 %
    21:00Ясно и безоблачно+18°C37 %758 мм1.3 м/с2 %
  • 22мая
    Среда
    +10°
    +26°
    Ясно и безоблачно
    ВремяПогодаТемператураВлажностьДавлениеВетер, м/сВероятность осадков
    00:00Ясно и безоблачно+13°C52 %758 мм2.3 м/с2 %
    03:00Ясно и безоблачно+10°C61 %758 мм1.9 м/с2 %
    06:00Ясно и безоблачно+13°C65 %758 мм1.8 м/с2 %
    09:00Ясно и безоблачно+23°C35 %758 мм1.8 м/с2 %
    12:00Небольшая облачность+26°C23 %758 мм3.0 м/с2 %
    15:00Ясно и безоблачно+26°C23 %757 мм3.8 м/с2 %
    18:00Ясно и безоблачно+24°C25 %756 мм2.4 м/с2 %
    21:00Ясно и безоблачно+19°C34 %756 мм0.6 м/с2 %
  • 23мая
    Четверг
    +10°
    +27°
    Практически безоблачно
    ВремяПогодаТемператураВлажностьДавлениеВетер, м/сВероятность осадков
    00:00Ясно и безоблачно+14°C51 %756 мм1.9 м/с2 %
    03:00Ясно и безоблачно+11°C61 %756 мм1.0 м/с2 %
    06:00Ясно и безоблачно+14°C58 %756 мм1.5 м/с2 %
    09:00Ясно и безоблачно+24°C33 %756 мм0.2 м/с2 %
    12:00Практически безоблачно+26°C26 %756 мм2.0 м/с3 %
    15:00Практически безоблачно+27°C26 %755 мм2.0 м/с14 %
    18:00Практически безоблачно+23°C40 %755 мм5.6 м/с9 %
    21:00Небольшая облачность+18°C50 %756 мм4.3 м/с2 %
Мы используем cookies
Соглашаюсь